Time;durP1;ratioP1;P1;durP2;ratioP2;P2;SDS_P1;SDS_P2;PMS_P1;PMS_P2;Temp;Humidity;BMP_temperature;BMP_pressure;BME280_temperature;BME280_humidity;BME280_pressure;Samples;Min_cycle;Max_cycle;Signal;HPM_P1;HPM_P2
2021/07/20 00:00:18;;;;;;;14.07;8.20;;;16.10;99.90;;;;;;5149453;28;20062;-83
2021/07/20 00:02:54;;;;;;;14.77;8.20;;;16.10;99.90;;;;;;5149397;28;20105;-82
2021/07/20 00:05:24;;;;;;;13.85;8.73;;;16.10;99.90;;;;;;5148806;28;20035;-82
2021/07/20 00:07:52;;;;;;;14.38;8.45;;;16.10;99.90;;;;;;5132259;28;20044;-83
2021/07/20 00:10:29;;;;;;;12.88;8.57;;;16.10;99.90;;;;;;5131361;28;20043;-83
2021/07/20 00:12:56;;;;;;;13.52;8.52;;;16.10;99.90;;;;;;5148782;28;20077;-83
2021/07/20 00:15:23;;;;;;;14.57;7.93;;;16.10;99.90;;;;;;5131540;28;20032;-83
2021/07/20 00:17:53;;;;;;;12.13;8.18;;;16.10;99.90;;;;;;5149006;28;20145;-83
2021/07/20 00:20:21;;;;;;;14.20;8.45;;;16.10;99.90;;;;;;5148588;28;20395;-83
2021/07/20 00:22:49;;;;;;;15.38;8.40;;;16.10;99.90;;;;;;5132042;28;20512;-83
2021/07/20 00:25:16;;;;;;;13.75;8.57;;;16.00;99.90;;;;;;5131440;28;20039;-83
2021/07/20 00:27:44;;;;;;;14.15;8.80;;;16.00;99.90;;;;;;5148849;28;20115;-83
2021/07/20 00:30:12;;;;;;;11.70;8.15;;;16.00;99.90;;;;;;5131501;28;20190;-84
2021/07/20 00:32:39;;;;;;;13.13;8.10;;;16.00;99.90;;;;;;5149560;28;20040;-83
2021/07/20 00:35:09;;;;;;;12.70;8.05;;;15.90;99.90;;;;;;5148404;28;20164;-83
2021/07/20 00:37:37;;;;;;;11.77;7.28;;;15.90;99.90;;;;;;5131029;28;20043;-82
2021/07/20 00:40:07;;;;;;;12.45;7.68;;;15.90;99.90;;;;;;5131371;28;20046;-82
2021/07/20 00:42:34;;;;;;;11.68;7.90;;;15.90;99.90;;;;;;5148196;28;20032;-83
2021/07/20 00:45:03;;;;;;;11.60;7.55;;;15.80;99.90;;;;;;5148373;28;20057;-82
2021/07/20 00:47:29;;;;;;;11.57;7.03;;;15.90;99.90;;;;;;5147799;28;20051;-83
2021/07/20 00:49:56;;;;;;;11.35;7.45;;;15.80;99.90;;;;;;5131504;28;20055;-83
2021/07/20 00:52:23;;;;;;;13.85;6.88;;;15.80;99.90;;;;;;5148007;28;20118;-83
2021/07/20 00:54:51;;;;;;;12.88;7.85;;;15.80;99.90;;;;;;5148474;28;20058;-83
2021/07/20 00:57:18;;;;;;;12.20;7.65;;;15.80;99.90;;;;;;5130988;28;20467;-83
2021/07/20 00:59:45;;;;;;;14.18;7.25;;;15.80;99.90;;;;;;5131170;28;20036;-83
2021/07/20 01:02:13;;;;;;;11.77;7.30;;;15.80;99.90;;;;;;5131335;28;20118;-83
2021/07/20 01:04:40;;;;;;;11.32;6.93;;;15.80;99.90;;;;;;5130092;28;20046;-83
2021/07/20 01:07:10;;;;;;;11.77;7.25;;;15.80;99.90;;;;;;5131241;28;20074;-83
2021/07/20 01:09:37;;;;;;;12.05;6.97;;;15.80;99.90;;;;;;5147627;28;20468;-82
2021/07/20 01:12:05;;;;;;;10.50;6.55;;;15.80;99.90;;;;;;5147725;28;20430;-82
2021/07/20 01:14:32;;;;;;;12.10;6.97;;;15.80;99.90;;;;;;5147542;28;20041;-82
2021/07/20 01:17:00;;;;;;;10.30;6.70;;;15.70;99.90;;;;;;5148233;28;20028;-82
2021/07/20 01:19:32;;;;;;;11.82;6.95;;;15.70;99.90;;;;;;5130569;28;20437;-82
2021/07/20 01:22:01;;;;;;;13.77;7.45;;;15.70;99.90;;;;;;5148177;28;20099;-83
2021/07/20 01:24:28;;;;;;;11.27;6.80;;;15.70;99.90;;;;;;5130447;28;20062;-82
2021/07/20 01:26:56;;;;;;;10.27;6.10;;;15.70;99.90;;;;;;5130972;28;20027;-83
2021/07/20 01:29:24;;;;;;;11.13;6.82;;;15.70;99.90;;;;;;5130282;28;20403;-84
2021/07/20 01:31:51;;;;;;;11.75;6.70;;;15.70;99.90;;;;;;5147307;28;20047;-82
2021/07/20 01:34:19;;;;;;;12.45;7.00;;;15.70;99.90;;;;;;5147645;28;20031;-82
2021/07/20 01:36:47;;;;;;;9.80;5.95;;;15.70;99.90;;;;;;5147158;28;20032;-82
2021/07/20 01:39:15;;;;;;;12.43;6.65;;;15.70;99.90;;;;;;5130477;28;20036;-82
2021/07/20 01:41:46;;;;;;;9.80;6.45;;;15.70;99.90;;;;;;5146895;28;20036;-82
2021/07/20 01:44:14;;;;;;;10.20;6.55;;;15.70;99.90;;;;;;5147314;28;20036;-82
2021/07/20 01:46:41;;;;;;;13.20;6.47;;;15.70;99.90;;;;;;5147243;28;20107;-83
2021/07/20 01:49:15;;;;;;;12.20;6.97;;;15.70;99.90;;;;;;5147569;28;20472;-82
2021/07/20 01:51:43;;;;;;;9.27;6.20;;;15.70;99.90;;;;;;5146753;28;20042;-83
2021/07/20 01:54:11;;;;;;;11.77;6.15;;;15.70;99.90;;;;;;5130652;28;20067;-83
2021/07/20 01:56:39;;;;;;;9.98;6.57;;;15.70;99.90;;;;;;5147107;28;20539;-82
2021/07/20 01:59:10;;;;;;;10.73;6.53;;;15.70;99.90;;;;;;5130389;28;20043;-83
2021/07/20 02:02:05;;;;;;;9.07;6.38;;;15.70;99.90;;;;;;5147050;28;20494;-83
2021/07/20 02:10:10;;;;;;;9.85;6.30;;;15.70;99.90;;;;;;5148422;28;20396;-83
2021/07/20 02:12:40;;;;;;;12.38;6.75;;;15.60;99.90;;;;;;5129762;28;20043;-83
2021/07/20 02:15:08;;;;;;;12.13;6.65;;;15.60;99.90;;;;;;5147201;28;20158;-83
2021/07/20 02:17:37;;;;;;;10.65;6.30;;;15.60;99.90;;;;;;5133745;28;20031;-83
2021/07/20 02:20:18;;;;;;;12.50;6.75;;;15.60;99.90;;;;;;5134428;28;20043;-83
2021/07/20 02:22:46;;;;;;;14.23;6.45;;;15.60;99.90;;;;;;5150902;28;20039;-82
2021/07/20 02:25:14;;;;;;;11.90;6.30;;;15.60;99.90;;;;;;5133940;28;20152;-82
2021/07/20 02:27:42;;;;;;;12.82;6.05;;;15.60;99.90;;;;;;5150650;28;20046;-83
2021/07/20 02:30:14;;;;;;;9.85;6.00;;;15.60;99.90;;;;;;5134088;28;20429;-83
2021/07/20 02:32:43;;;;;;;10.48;6.20;;;15.60;99.90;;;;;;5150766;28;20043;-83
2021/07/20 02:35:14;;;;;;;12.00;5.70;;;15.60;99.90;;;;;;5134281;28;20046;-83
2021/07/20 02:37:42;;;;;;;8.85;5.72;;;15.60;99.90;;;;;;5150287;28;20066;-83
2021/07/20 02:40:10;;;;;;;12.15;6.10;;;15.60;99.90;;;;;;5133987;28;20111;-83
2021/07/20 02:42:39;;;;;;;9.90;5.43;;;15.50;99.90;;;;;;5133671;28;20388;-83
2021/07/20 02:45:08;;;;;;;9.32;5.90;;;15.60;99.90;;;;;;5150922;28;20055;-83
2021/07/20 02:47:36;;;;;;;8.05;5.30;;;15.60;99.90;;;;;;5151525;28;20081;-83
2021/07/20 02:50:12;;;;;;;9.40;5.53;;;15.60;99.90;;;;;;5134182;28;20050;-83
2021/07/20 02:52:44;;;;;;;7.75;4.85;;;15.60;99.90;;;;;;5151541;28;20039;-83
2021/07/20 02:55:13;;;;;;;8.73;5.00;;;15.70;99.90;;;;;;5150841;28;20074;-83
2021/07/20 02:57:42;;;;;;;9.27;5.00;;;15.70;99.90;;;;;;5133161;28;20063;-83
2021/07/20 03:00:11;;;;;;;10.90;5.30;;;15.70;99.90;;;;;;5150552;28;20036;-82
2021/07/20 03:02:42;;;;;;;9.23;4.90;;;15.70;99.90;;;;;;5149956;28;20035;-83
2021/07/20 03:05:10;;;;;;;9.60;4.72;;;15.70;99.90;;;;;;5150454;28;20036;-84
2021/07/20 03:07:42;;;;;;;8.15;5.00;;;15.70;99.90;;;;;;5150019;28;20118;-83
2021/07/20 03:10:10;;;;;;;8.98;5.13;;;15.70;99.90;;;;;;5151072;28;20039;-83
2021/07/20 03:12:42;;;;;;;7.72;4.60;;;15.70;99.90;;;;;;5149899;28;20078;-83
2021/07/20 03:15:09;;;;;;;8.65;5.00;;;15.60;99.90;;;;;;5150545;28;20044;-83
2021/07/20 03:17:36;;;;;;;9.13;5.15;;;15.60;99.90;;;;;;5132816;28;20039;-82
2021/07/20 03:20:05;;;;;;;7.35;4.47;;;15.60;99.90;;;;;;5133095;28;20551;-83
2021/07/20 03:22:33;;;;;;;10.73;4.80;;;15.60;99.90;;;;;;5132969;28;20039;-83
2021/07/20 03:25:03;;;;;;;7.30;4.65;;;15.50;99.90;;;;;;5132559;28;20392;-83
2021/07/20 03:27:32;;;;;;;10.75;4.65;;;15.50;99.90;;;;;;5148506;28;20032;-83
2021/07/20 03:30:00;;;;;;;7.03;4.13;;;15.50;99.90;;;;;;5148875;28;20039;-83
2021/07/20 03:32:28;;;;;;;6.88;4.47;;;15.50;99.90;;;;;;5131942;28;20097;-83
2021/07/20 03:34:56;;;;;;;8.82;4.60;;;15.40;99.90;;;;;;5131571;28;20395;-83
2021/07/20 03:37:24;;;;;;;10.25;5.15;;;15.40;99.90;;;;;;5148904;28;20059;-83
2021/07/20 03:39:53;;;;;;;7.95;4.72;;;15.40;99.90;;;;;;5131559;28;20540;-83
2021/07/20 03:42:24;;;;;;;8.63;4.72;;;15.40;99.90;;;;;;5148771;28;20034;-83
2021/07/20 03:44:52;;;;;;;7.88;5.07;;;15.40;99.90;;;;;;5150601;28;20038;-83
2021/07/20 03:47:19;;;;;;;9.75;4.93;;;15.40;99.90;;;;;;5149548;28;20533;-83
2021/07/20 03:49:47;;;;;;;9.50;4.93;;;15.40;99.90;;;;;;5132255;28;20032;-84
2021/07/20 03:52:14;;;;;;;9.25;4.53;;;15.40;99.90;;;;;;5132471;28;20119;-84
2021/07/20 03:54:41;;;;;;;8.82;4.82;;;15.50;99.90;;;;;;5150078;28;20108;-83
2021/07/20 03:57:09;;;;;;;8.05;4.80;;;15.50;99.90;;;;;;5149483;28;20035;-83
2021/07/20 03:59:38;;;;;;;9.02;4.82;;;15.40;99.90;;;;;;5149556;28;20066;-83
2021/07/20 04:02:08;;;;;;;8.50;5.05;;;15.30;99.90;;;;;;5149871;28;20438;-83
2021/07/20 04:04:39;;;;;;;8.73;5.30;;;15.30;99.90;;;;;;5132720;28;20035;-83
2021/07/20 04:07:13;;;;;;;9.45;5.38;;;15.30;99.90;;;;;;5149961;28;20039;-83
2021/07/20 04:09:40;;;;;;;8.40;5.18;;;15.30;99.90;;;;;;5149090;28;20036;-83
2021/07/20 04:12:08;;;;;;;7.47;4.75;;;15.20;99.90;;;;;;5149261;28;20396;-83
2021/07/20 04:14:37;;;;;;;7.45;5.43;;;15.30;99.90;;;;;;5132216;28;20040;-83
2021/07/20 04:17:05;;;;;;;7.82;5.22;;;15.20;99.90;;;;;;5131617;28;20059;-82
2021/07/20 04:19:34;;;;;;;10.02;4.75;;;15.20;99.90;;;;;;5149303;28;20043;-83
2021/07/20 04:22:02;;;;;;;10.65;5.00;;;15.20;99.90;;;;;;5150170;28;20047;-82
2021/07/20 04:24:30;;;;;;;7.88;5.10;;;15.20;99.90;;;;;;5131846;28;20055;-83
2021/07/20 04:26:57;;;;;;;8.82;5.00;;;15.30;99.90;;;;;;5131507;28;20043;-83
2021/07/20 04:29:26;;;;;;;11.27;5.20;;;15.30;99.90;;;;;;5148701;28;20036;-83
2021/07/20 04:31:54;;;;;;;9.10;5.20;;;15.30;99.90;;;;;;5131313;28;20047;-83
2021/07/20 04:34:22;;;;;;;10.95;5.30;;;15.40;99.90;;;;;;5148713;28;20043;-83
2021/07/20 04:36:51;;;;;;;8.77;5.10;;;15.40;99.90;;;;;;5148354;28;20062;-82
2021/07/20 04:39:18;;;;;;;9.85;5.55;;;15.40;99.90;;;;;;5148449;28;20040;-82
2021/07/20 04:41:46;;;;;;;9.55;5.55;;;15.40;99.90;;;;;;5147940;28;20047;-83
2021/07/20 04:44:15;;;;;;;11.02;5.78;;;15.50;99.90;;;;;;5148382;28;20043;-83
2021/07/20 04:46:45;;;;;;;8.98;5.35;;;15.40;99.90;;;;;;5131384;28;20039;-83
2021/07/20 04:49:13;;;;;;;11.73;5.82;;;15.50;99.90;;;;;;5148215;28;20061;-83
2021/07/20 04:51:42;;;;;;;9.32;5.60;;;15.50;99.90;;;;;;5148383;28;20040;-83
2021/07/20 04:54:10;;;;;;;10.52;5.78;;;15.50;99.90;;;;;;5147684;28;20034;-83
2021/07/20 04:56:37;;;;;;;10.88;6.35;;;15.50;99.90;;;;;;5115114;28;20093;-83
2021/07/20 04:59:03;;;;;;;14.32;6.28;;;15.50;99.90;;;;;;5147858;28;20047;-83
2021/07/20 05:01:33;;;;;;;11.07;6.10;;;15.40;99.90;;;;;;5114775;28;20047;-82
2021/07/20 05:04:02;;;;;;;12.35;6.75;;;15.50;99.90;;;;;;5130799;28;20035;-83
2021/07/20 05:06:30;;;;;;;11.95;6.78;;;15.50;99.90;;;;;;5131379;28;20027;-83
2021/07/20 05:08:58;;;;;;;11.95;6.40;;;15.40;99.90;;;;;;5130883;28;20035;-83
2021/07/20 05:11:27;;;;;;;11.20;6.72;;;15.40;99.90;;;;;;5131047;28;20447;-82
2021/07/20 05:13:54;;;;;;;11.73;7.05;;;15.50;99.90;;;;;;5130704;28;20027;-82
2021/07/20 05:16:21;;;;;;;12.63;6.63;;;15.50;99.90;;;;;;5130996;28;20063;-83
2021/07/20 05:18:48;;;;;;;14.15;6.90;;;15.50;99.90;;;;;;5147626;28;20130;-84
2021/07/20 05:21:17;;;;;;;11.60;7.00;;;15.50;99.90;;;;;;5130943;28;20524;-83
2021/07/20 05:23:45;;;;;;;11.60;7.20;;;15.50;99.90;;;;;;5147840;28;20123;-82
2021/07/20 05:26:13;;;;;;;12.15;6.30;;;15.50;99.90;;;;;;5147279;28;20042;-83
2021/07/20 05:28:40;;;;;;;13.38;7.07;;;15.50;99.90;;;;;;5147602;28;20118;-83
2021/07/20 05:31:09;;;;;;;10.38;6.50;;;15.50;99.90;;;;;;5129982;28;20070;-83
2021/07/20 05:33:36;;;;;;;15.25;7.13;;;15.50;99.90;;;;;;5147803;28;20529;-82
2021/07/20 05:36:04;;;;;;;12.50;6.53;;;15.50;99.90;;;;;;5148246;28;20069;-83
2021/07/20 05:38:31;;;;;;;10.07;6.65;;;15.50;99.90;;;;;;5131016;28;20055;-83
2021/07/20 05:40:59;;;;;;;10.65;6.45;;;15.60;99.90;;;;;;5147989;28;20056;-83
2021/07/20 05:43:28;;;;;;;11.13;6.30;;;15.70;99.90;;;;;;5148945;28;20035;-83
2021/07/20 05:45:58;;;;;;;10.07;6.25;;;15.70;99.90;;;;;;5147343;28;20032;-83
2021/07/20 05:48:25;;;;;;;11.05;6.75;;;15.80;99.90;;;;;;5131051;28;20447;-83
2021/07/20 05:50:54;;;;;;;11.13;6.65;;;15.80;99.90;;;;;;5129650;28;20046;-83
2021/07/20 05:53:25;;;;;;;11.75;6.65;;;15.80;99.90;;;;;;5147971;28;20199;-83
2021/07/20 05:55:55;;;;;;;12.40;6.75;;;15.90;99.90;;;;;;5147979;28;20046;-84
2021/07/20 05:58:23;;;;;;;11.30;6.78;;;15.90;99.90;;;;;;5147822;28;20056;-84
2021/07/20 06:00:54;;;;;;;12.48;6.72;;;15.90;99.90;;;;;;5130776;28;20042;-83
2021/07/20 06:03:26;;;;;;;11.18;6.43;;;16.00;99.90;;;;;;5148415;28;20403;-83
2021/07/20 06:05:54;;;;;;;12.77;6.80;;;16.00;99.90;;;;;;5147673;28;20046;-84
2021/07/20 06:08:24;;;;;;;14.77;6.32;;;16.00;99.90;;;;;;5130788;28;20563;-84
2021/07/20 06:10:56;;;;;;;11.43;7.05;;;16.00;99.90;;;;;;5148579;28;20039;-83
2021/07/20 06:13:27;;;;;;;12.82;6.75;;;16.10;99.90;;;;;;5147612;28;20031;-83
2021/07/20 06:15:55;;;;;;;10.18;6.20;;;16.10;99.90;;;;;;5147177;28;20119;-84
2021/07/20 06:18:22;;;;;;;13.27;6.90;;;16.10;99.90;;;;;;5113748;28;20055;-83
2021/07/20 06:21:01;;;;;;;13.82;6.80;;;16.10;99.90;;;;;;5130246;28;20036;-83
2021/07/20 06:23:34;;;;;;;11.90;6.82;;;16.10;99.90;;;;;;5146992;28;20035;-83
2021/07/20 06:26:02;;;;;;;10.68;6.75;;;16.20;99.90;;;;;;5147754;28;20385;-84
2021/07/20 06:28:29;;;;;;;11.90;6.95;;;16.20;99.90;;;;;;5130683;28;20088;-83
2021/07/20 06:30:57;;;;;;;11.77;7.15;;;16.30;99.90;;;;;;5147128;28;20063;-85
2021/07/20 06:33:26;;;;;;;11.80;7.18;;;16.30;99.90;;;;;;5130397;28;20407;-83
2021/07/20 06:35:54;;;;;;;12.63;6.55;;;16.30;99.90;;;;;;5130432;28;20036;-83
2021/07/20 06:38:23;;;;;;;11.18;6.35;;;16.40;99.90;;;;;;5146939;28;20066;-83
2021/07/20 06:40:54;;;;;;;11.57;6.78;;;16.40;99.90;;;;;;5147166;28;20043;-83
2021/07/20 06:43:22;;;;;;;13.18;7.05;;;16.40;99.90;;;;;;5129886;28;20051;-83
2021/07/20 06:45:49;;;;;;;11.85;6.72;;;16.40;99.90;;;;;;5130495;28;20059;-83
2021/07/20 06:48:19;;;;;;;15.63;7.30;;;16.50;99.90;;;;;;5147226;28;20070;-83
2021/07/20 06:50:48;;;;;;;13.32;7.10;;;16.50;99.90;;;;;;5147096;28;20060;-83
2021/07/20 06:53:15;;;;;;;12.30;6.78;;;16.60;99.90;;;;;;5147065;28;20061;-83
2021/07/20 06:55:53;;;;;;;11.65;6.90;;;16.60;99.90;;;;;;5130258;28;20119;-83
2021/07/20 06:58:24;;;;;;;11.90;7.00;;;16.70;99.90;;;;;;5146613;28;20068;-83
2021/07/20 07:00:54;;;;;;;10.52;6.80;;;16.80;99.90;;;;;;5147531;28;20125;-83
2021/07/20 07:03:37;;;;;;;10.45;6.65;;;16.80;99.90;;;;;;5148075;28;20040;-82
2021/07/20 07:06:05;;;;;;;11.90;6.72;;;16.90;99.90;;;;;;5150588;28;20441;-84
2021/07/20 07:08:33;;;;;;;15.13;7.22;;;17.00;99.90;;;;;;5133956;28;20077;-83
2021/07/20 07:11:01;;;;;;;11.98;7.10;;;17.10;99.90;;;;;;5133038;28;20043;-84
2021/07/20 07:13:29;;;;;;;13.48;7.00;;;17.10;99.90;;;;;;5133715;28;20055;-83
2021/07/20 07:15:57;;;;;;;11.15;6.72;;;17.30;99.90;;;;;;5133645;28;20031;-83
2021/07/20 07:18:25;;;;;;;12.50;7.10;;;17.30;99.90;;;;;;5149926;28;20054;-83
2021/07/20 07:20:54;;;;;;;11.52;7.10;;;17.50;99.90;;;;;;5150032;28;20088;-83
2021/07/20 07:23:22;;;;;;;15.55;7.00;;;17.50;99.90;;;;;;5151351;28;20051;-83
2021/07/20 07:25:51;;;;;;;11.07;6.88;;;17.60;99.90;;;;;;5150253;28;20063;-83
2021/07/20 07:28:20;;;;;;;9.82;6.25;;;17.50;99.90;;;;;;5150017;28;20036;-83
2021/07/20 07:30:50;;;;;;;11.55;6.45;;;17.50;99.90;;;;;;5133306;28;20059;-84
2021/07/20 07:33:18;;;;;;;11.70;6.38;;;17.60;99.90;;;;;;5133292;28;20042;-84
2021/07/20 07:35:46;;;;;;;9.68;5.95;;;17.70;99.90;;;;;;5116905;28;20062;-83
2021/07/20 07:38:16;;;;;;;10.93;6.13;;;17.70;99.90;;;;;;5151072;28;20044;-83
2021/07/20 07:40:55;;;;;;;10.95;6.15;;;17.80;99.90;;;;;;5116519;28;20550;-83
2021/07/20 07:43:26;;;;;;;9.50;5.38;;;17.90;99.90;;;;;;5149872;28;20446;-84
2021/07/20 07:45:55;;;;;;;9.85;5.28;;;17.90;99.90;;;;;;5149741;28;20084;-83
2021/07/20 07:48:24;;;;;;;9.70;5.57;;;18.00;99.90;;;;;;5149517;28;20398;-83
2021/07/20 07:50:55;;;;;;;13.60;5.57;;;18.10;99.90;;;;;;5149724;28;20120;-83
2021/07/20 07:53:23;;;;;;;11.25;5.88;;;18.20;99.90;;;;;;5149667;28;20126;-83
2021/07/20 07:55:51;;;;;;;7.35;4.55;;;18.20;99.90;;;;;;5133128;28;20069;-83
2021/07/20 07:58:18;;;;;;;12.45;5.03;;;18.30;99.90;;;;;;5149483;28;20399;-84
2021/07/20 08:00:47;;;;;;;8.65;5.22;;;18.40;99.90;;;;;;5132998;28;20043;-83
2021/07/20 08:03:17;;;;;;;8.48;5.07;;;18.50;99.90;;;;;;5149173;28;20467;-83
2021/07/20 08:05:47;;;;;;;7.70;4.70;;;18.60;99.90;;;;;;5132699;28;20040;-83
2021/07/20 08:08:15;;;;;;;7.82;4.53;;;18.70;99.90;;;;;;5132291;28;20437;-84
2021/07/20 08:10:43;;;;;;;8.20;4.55;;;18.90;99.90;;;;;;5115956;28;20048;-83
2021/07/20 08:13:14;;;;;;;9.07;5.10;;;19.00;99.90;;;;;;5131705;28;20396;-84
2021/07/20 08:15:42;;;;;;;9.57;4.70;;;19.10;99.90;;;;;;5131722;28;20078;-83
2021/07/20 08:18:09;;;;;;;8.30;5.18;;;19.30;99.90;;;;;;5131841;28;20085;-84
2021/07/20 08:20:37;;;;;;;7.72;4.90;;;19.30;99.90;;;;;;5132538;28;20040;-83
2021/07/20 08:23:04;;;;;;;8.23;5.35;;;19.30;99.90;;;;;;5132540;28;20372;-82
2021/07/20 08:25:35;;;;;;;7.63;4.90;;;19.60;99.90;;;;;;5131829;28;20057;-83
2021/07/20 08:28:09;;;;;;;8.02;5.03;;;19.70;99.90;;;;;;5132717;28;20061;-83
2021/07/20 08:30:49;;;;;;;8.07;4.75;;;20.00;99.90;;;;;;5148814;28;20047;-83
2021/07/20 08:33:19;;;;;;;8.63;4.95;;;20.40;99.90;;;;;;5148821;28;20036;-83
2021/07/20 08:35:49;;;;;;;7.13;4.53;;;20.60;99.90;;;;;;5150139;28;20585;-82
2021/07/20 08:38:20;;;;;;;7.82;4.50;;;20.60;99.90;;;;;;5148730;28;20042;-83
2021/07/20 08:40:51;;;;;;;9.55;5.03;;;20.50;99.90;;;;;;5148685;28;20392;-82
2021/07/20 08:43:36;;;;;;;10.57;4.75;;;20.40;99.90;;;;;;5149910;28;20058;-84
2021/07/20 08:46:16;;;;;;;10.50;4.63;;;20.30;99.90;;;;;;5148997;28;20035;-83
2021/07/20 08:49:13;;;;;;;7.47;4.90;;;20.10;99.90;;;;;;5148665;28;20038;-83
2021/07/20 08:51:57;;;;;;;9.82;4.97;;;20.00;99.90;;;;;;5148472;28;20048;-84
2021/07/20 08:54:26;;;;;;;9.77;5.28;;;19.80;99.90;;;;;;5131347;28;20063;-84
2021/07/20 08:56:56;;;;;;;9.32;5.30;;;19.70;99.90;;;;;;5148479;28;20032;-83
2021/07/20 08:59:26;;;;;;;8.80;4.97;;;19.60;99.90;;;;;;5131579;28;20046;-84
2021/07/20 09:02:15;;;;;;;8.73;4.93;;;19.40;99.90;;;;;;5148745;28;20035;-83
2021/07/20 09:04:52;;;;;;;8.98;5.00;;;19.50;99.90;;;;;;5149918;28;20396;-84
2021/07/20 09:07:23;;;;;;;8.23;4.75;;;19.70;99.90;;;;;;5148092;28;20046;-84
2021/07/20 09:09:55;;;;;;;8.13;4.90;;;20.00;99.90;;;;;;5148195;28;20035;-84
2021/07/20 09:12:28;;;;;;;7.20;4.93;;;20.20;99.90;;;;;;5149425;28;20059;-84
2021/07/20 09:15:04;;;;;;;8.48;5.30;;;20.40;99.90;;;;;;5148829;28;20028;-83
2021/07/20 09:17:53;;;;;;;11.27;5.57;;;20.70;99.90;;;;;;5148404;28;20050;-82
2021/07/20 09:20:34;;;;;;;9.88;5.05;;;20.90;99.90;;;;;;5149513;28;20437;-83
2021/07/20 09:23:05;;;;;;;8.65;4.78;;;21.00;99.90;;;;;;5149596;28;20476;-83
2021/07/20 09:25:39;;;;;;;7.95;4.55;;;21.10;99.90;;;;;;5147255;28;20050;-83
2021/07/20 09:28:12;;;;;;;8.68;5.05;;;21.20;99.90;;;;;;5148642;28;20036;-83
2021/07/20 09:30:43;;;;;;;7.15;4.80;;;21.30;99.90;;;;;;5147684;28;20036;-83
2021/07/20 09:33:26;;;;;;;9.02;4.95;;;21.40;99.90;;;;;;5149363;28;20081;-83
2021/07/20 09:36:17;;;;;;;8.43;4.95;;;21.60;99.90;;;;;;5148103;28;20035;-83
2021/07/20 09:38:55;;;;;;;7.88;4.90;;;21.70;99.90;;;;;;5148558;28;20108;-83
2021/07/20 09:41:26;;;;;;;8.95;4.80;;;21.90;99.90;;;;;;5130765;28;20051;-84
2021/07/20 09:44:01;;;;;;;6.80;4.43;;;21.90;99.90;;;;;;5148089;28;20043;-84
2021/07/20 09:46:46;;;;;;;8.32;4.43;;;21.80;99.90;;;;;;5147829;28;20391;-84
2021/07/20 09:49:32;;;;;;;10.60;4.30;;;21.50;99.90;;;;;;5131132;28;20044;-84
2021/07/20 09:52:17;;;;;;;8.05;4.72;;;21.30;99.90;;;;;;5148757;28;20137;-84
2021/07/20 09:55:04;;;;;;;7.72;4.15;;;21.20;99.90;;;;;;5149621;28;20035;-84
2021/07/20 09:58:04;;;;;;;7.95;4.68;;;21.00;99.90;;;;;;5147044;28;20054;-84
2021/07/20 10:00:58;;;;;;;7.43;4.40;;;20.90;99.90;;;;;;5146866;28;20048;-84
2021/07/20 10:03:53;;;;;;;7.57;4.55;;;20.90;99.90;;;;;;5147501;28;20118;-84
2021/07/20 10:06:47;;;;;;;8.38;4.80;;;21.00;99.90;;;;;;5147789;28;20471;-84
2021/07/20 10:09:23;;;;;;;6.80;4.63;;;21.20;99.90;;;;;;5148909;28;20415;-84
2021/07/20 10:11:53;;;;;;;6.22;4.07;;;21.30;99.90;;;;;;5147797;28;20108;-83
2021/07/20 10:14:41;;;;;;;7.20;4.55;;;21.40;99.90;;;;;;5147507;28;20062;-84
2021/07/20 10:17:27;;;;;;;6.55;3.95;;;21.60;99.90;;;;;;5147845;28;20035;-84
2021/07/20 10:20:03;;;;;;;7.00;4.50;;;21.70;99.90;;;;;;5147883;28;20043;-84
2021/07/20 10:22:59;;;;;;;6.22;4.22;;;21.80;99.90;;;;;;5147456;28;20031;-84
2021/07/20 10:26:04;;;;;;;7.13;4.30;;;21.80;99.40;;;;;;5146776;28;20046;-84
2021/07/20 10:28:43;;;;;;;6.68;4.07;;;21.80;99.90;;;;;;5149915;28;20050;-84
2021/07/20 10:31:20;;;;;;;7.97;4.10;;;21.90;99.50;;;;;;5147191;28;20403;-84
2021/07/20 10:33:51;;;;;;;7.65;4.43;;;22.00;99.90;;;;;;5147981;28;20503;-84
2021/07/20 10:36:27;;;;;;;8.82;4.72;;;22.10;99.90;;;;;;5147566;28;20081;-83
2021/07/20 10:39:10;;;;;;;7.22;3.75;;;22.10;99.30;;;;;;5151676;28;20456;-83
2021/07/20 10:41:54;;;;;;;6.78;4.40;;;22.10;99.90;;;;;;5151283;28;20039;-84
2021/07/20 10:44:29;;;;;;;6.63;4.33;;;22.10;99.90;;;;;;5153023;28;20049;-83
2021/07/20 10:47:01;;;;;;;6.90;4.22;;;22.30;99.90;;;;;;5153447;28;20031;-83
2021/07/20 10:49:34;;;;;;;7.72;4.07;;;22.30;99.90;;;;;;5151536;28;20476;-83
2021/07/20 10:52:21;;;;;;;7.13;4.40;;;22.40;99.70;;;;;;5152811;28;20051;-84
2021/07/20 10:55:03;;;;;;;5.90;3.72;;;22.40;99.20;;;;;;5150992;28;20115;-83
2021/07/20 10:57:43;;;;;;;7.10;3.92;;;22.30;99.60;;;;;;5152005;28;20114;-84
2021/07/20 11:00:16;;;;;;;5.50;3.63;;;22.30;99.90;;;;;;5150688;28;20039;-84
2021/07/20 11:03:36;;;;;;;6.57;4.05;;;22.20;99.90;;;;;;5150804;28;20365;-84
2021/07/20 11:06:05;;;;;;;6.95;4.10;;;22.20;99.90;;;;;;5153663;27;20500;-84
2021/07/20 11:08:33;;;;;;;6.28;3.75;;;22.10;99.90;;;;;;5133413;28;20055;-84
2021/07/20 11:11:02;;;;;;;6.05;4.07;;;21.90;99.90;;;;;;5133976;28;20046;-83
2021/07/20 11:13:33;;;;;;;7.00;4.38;;;21.80;99.90;;;;;;5150545;28;20062;-84
2021/07/20 11:16:14;;;;;;;5.82;3.80;;;21.70;99.90;;;;;;5150273;28;20408;-83
2021/07/20 11:18:43;;;;;;;6.18;4.38;;;21.60;99.90;;;;;;5133359;28;20138;-84
2021/07/20 11:21:14;;;;;;;8.15;4.60;;;21.60;99.90;;;;;;5133063;28;20559;-84
2021/07/20 11:23:44;;;;;;;8.00;4.85;;;21.50;99.90;;;;;;5149664;28;20039;-83
2021/07/20 11:26:12;;;;;;;6.32;4.45;;;21.30;99.90;;;;;;5150531;28;20036;-83
2021/07/20 11:28:43;;;;;;;7.90;4.68;;;21.30;99.90;;;;;;5150123;28;20442;-84
2021/07/20 11:31:17;;;;;;;9.27;4.85;;;21.20;99.90;;;;;;5150493;28;20052;-84
2021/07/20 11:33:53;;;;;;;7.38;5.10;;;21.10;99.90;;;;;;5149735;28;20048;-83
2021/07/20 11:36:23;;;;;;;7.75;5.10;;;21.10;99.90;;;;;;5150548;28;20084;-83
2021/07/20 11:38:54;;;;;;;11.98;5.18;;;21.10;99.90;;;;;;5150870;28;20046;-83
2021/07/20 11:41:30;;;;;;;9.35;5.28;;;21.00;99.90;;;;;;5150188;28;20047;-84
2021/07/20 11:44:08;;;;;;;8.25;4.90;;;21.00;99.90;;;;;;5150207;28;20059;-84
2021/07/20 11:46:43;;;;;;;6.85;4.95;;;21.00;99.90;;;;;;5149883;28;20035;-84
2021/07/20 11:49:42;;;;;;;7.15;4.10;;;20.90;99.90;;;;;;5150769;28;20040;-84
2021/07/20 11:52:18;;;;;;;6.07;4.05;;;20.90;99.90;;;;;;5149887;28;20031;-84
2021/07/20 11:54:58;;;;;;;7.65;4.80;;;20.90;99.90;;;;;;5149698;28;20122;-83
2021/07/20 11:57:40;;;;;;;8.27;4.70;;;20.90;99.90;;;;;;5150071;28;20490;-83
2021/07/20 12:00:23;;;;;;;7.70;4.38;;;20.90;99.90;;;;;;5149734;28;20040;-84
2021/07/20 12:03:09;;;;;;;8.23;4.43;;;20.90;99.90;;;;;;5149358;28;20467;-83
2021/07/20 12:06:00;;;;;;;8.35;4.25;;;21.00;99.90;;;;;;5148839;28;20036;-84
2021/07/20 12:08:49;;;;;;;7.82;4.55;;;21.10;99.90;;;;;;5132873;28;20047;-84
2021/07/20 12:11:25;;;;;;;7.07;4.03;;;21.20;99.90;;;;;;5149784;28;20122;-83
2021/07/20 12:13:57;;;;;;;8.05;4.25;;;21.20;99.90;;;;;;5148994;28;20040;-83
2021/07/20 12:16:24;;;;;;;8.15;4.50;;;21.30;99.90;;;;;;5133489;28;20035;-83
2021/07/20 12:18:55;;;;;;;6.40;4.00;;;21.60;99.90;;;;;;5131945;28;20039;-83
2021/07/20 12:21:29;;;;;;;7.90;4.13;;;21.70;99.90;;;;;;5132219;28;20042;-83
2021/07/20 12:24:02;;;;;;;7.80;4.13;;;21.70;99.90;;;;;;5148721;28;20066;-83
2021/07/20 12:26:29;;;;;;;8.38;4.05;;;21.60;99.90;;;;;;5149077;28;20342;-83
2021/07/20 12:28:56;;;;;;;7.20;4.03;;;21.50;99.90;;;;;;5131833;28;20036;-83
2021/07/20 12:31:28;;;;;;;8.15;3.97;;;21.50;99.90;;;;;;5132301;28;20040;-83
2021/07/20 12:33:57;;;;;;;8.32;4.03;;;21.70;99.90;;;;;;5148549;28;20051;-83
2021/07/20 12:36:24;;;;;;;6.80;3.90;;;21.80;99.90;;;;;;5148989;28;20036;-83
2021/07/20 12:39:08;;;;;;;5.80;3.97;;;22.00;99.90;;;;;;5131700;28;20380;-83
2021/07/20 12:41:35;;;;;;;5.68;4.15;;;22.10;99.90;;;;;;5148705;28;20372;-84
2021/07/20 12:44:04;;;;;;;6.50;4.40;;;22.10;99.90;;;;;;5148730;28;20028;-83
2021/07/20 12:46:35;;;;;;;6.55;3.58;;;22.00;99.90;;;;;;5132039;28;20036;-83
2021/07/20 12:49:03;;;;;;;6.47;4.15;;;21.90;99.90;;;;;;5149133;28;20040;-83
2021/07/20 12:51:30;;;;;;;7.05;3.95;;;21.90;99.90;;;;;;5132087;28;20092;-83
2021/07/20 12:53:57;;;;;;;8.02;4.57;;;21.70;99.90;;;;;;5148688;28;20493;-84
2021/07/20 12:56:29;;;;;;;5.68;3.80;;;21.50;99.90;;;;;;5131649;28;20063;-83
2021/07/20 12:59:07;;;;;;;6.07;3.80;;;21.40;99.90;;;;;;5131213;28;20095;-83
2021/07/20 13:01:36;;;;;;;6.65;3.92;;;21.30;99.90;;;;;;5150036;28;20035;-83
2021/07/20 13:04:05;;;;;;;5.43;4.00;;;21.30;99.90;;;;;;5132231;28;20114;-83
2021/07/20 13:06:36;;;;;;;8.07;4.45;;;21.20;99.90;;;;;;5131584;28;20403;-83
2021/07/20 13:09:05;;;;;;;7.28;4.38;;;21.20;99.90;;;;;;5148174;28;20032;-83
2021/07/20 13:11:37;;;;;;;7.03;4.15;;;21.30;99.90;;;;;;5131665;28;20043;-83